Time;durP1;ratioP1;P1;durP2;ratioP2;P2;SDS_P1;SDS_P2;PMS_P1;PMS_P2;Temp;Humidity;BMP_temperature;BMP_pressure;BME280_temperature;BME280_humidity;BME280_pressure;Samples;Min_cycle;Max_cycle;Signal;HPM_P1;HPM_P2
2022/08/06 00:02:25;;;;;;;7.68;2.65;;;;;;;13.68;69.61;102441.03;4891765;29;20049;-74
2022/08/06 00:04:59;;;;;;;5.43;2.40;;;;;;;13.68;69.81;102441.88;4882648;29;20058;-73
2022/08/06 00:07:27;;;;;;;6.15;2.55;;;;;;;13.66;69.55;102441.94;4896908;29;20888;-74
2022/08/06 00:10:18;;;;;;;5.00;2.70;;;;;;;13.61;69.63;102443.78;4892804;29;21017;-74
2022/08/06 00:12:58;;;;;;;5.43;2.78;;;;;;;13.57;69.67;102447.41;4894827;29;20606;-75
2022/08/06 00:15:28;;;;;;;6.35;2.40;;;;;;;13.54;69.83;102439.50;4882878;29;20049;-75
2022/08/06 00:18:15;;;;;;;5.68;2.53;;;;;;;13.55;69.78;102445.66;4895718;29;20053;-74
2022/08/06 00:20:44;;;;;;;6.85;3.00;;;;;;;13.53;70.00;102443.03;4896358;29;20135;-75
2022/08/06 00:23:17;;;;;;;9.02;2.95;;;;;;;13.50;70.07;102453.69;4888043;29;20052;-74
2022/08/06 00:25:50;;;;;;;7.80;2.87;;;;;;;13.48;70.41;102443.13;4892997;29;20067;-74
2022/08/06 00:28:22;;;;;;;7.50;2.55;;;;;;;13.51;70.65;102447.47;4893629;29;20056;-74
2022/08/06 00:31:01;;;;;;;7.55;2.70;;;;;;;13.49;70.52;102455.47;4894648;29;21215;-74
2022/08/06 00:33:41;;;;;;;7.43;2.70;;;;;;;13.46;70.56;102462.59;4883238;29;20140;-74
2022/08/06 00:36:25;;;;;;;9.00;2.83;;;;;;;13.41;71.07;102467.06;4878623;29;20585;-74
2022/08/06 00:38:58;;;;;;;6.88;2.80;;;;;;;13.38;71.41;102467.13;4895525;29;20045;-75
2022/08/06 00:41:28;;;;;;;5.57;3.00;;;;;;;13.32;71.18;102468.09;4878804;29;20042;-74
2022/08/06 00:44:12;;;;;;;7.88;2.90;;;;;;;13.26;71.17;102473.47;4893049;29;20050;-75
2022/08/06 00:46:42;;;;;;;6.05;2.72;;;;;;;13.24;71.03;102480.56;4896629;29;20480;-74
2022/08/06 00:49:11;;;;;;;10.70;3.22;;;;;;;13.23;71.16;102478.81;4893446;29;20101;-74
2022/08/06 00:51:39;;;;;;;11.73;2.70;;;;;;;13.17;71.29;102477.16;4892249;29;20418;-75
2022/08/06 00:54:21;;;;;;;5.53;2.60;;;;;;;13.11;71.51;102475.47;4892070;29;20124;-75
2022/08/06 00:57:06;;;;;;;6.00;2.97;;;;;;;13.09;71.59;102471.97;4895257;29;20043;-75
2022/08/06 00:59:38;;;;;;;8.73;3.28;;;;;;;13.04;71.50;102476.44;4894218;29;20060;-75
2022/08/06 01:02:06;;;;;;;8.50;3.33;;;;;;;13.01;71.62;102472.06;4896505;29;20049;-75
2022/08/06 01:04:37;;;;;;;11.55;3.03;;;;;;;13.01;71.93;102481.78;4880178;29;20201;-73
2022/08/06 01:07:04;;;;;;;7.30;2.97;;;;;;;12.97;71.95;102478.28;4894889;29;20049;-74
2022/08/06 01:09:36;;;;;;;8.82;3.35;;;;;;;12.96;72.03;102484.50;4892111;29;20144;-74
2022/08/06 01:12:23;;;;;;;8.77;2.95;;;;;;;12.93;72.11;102481.88;4895817;29;20041;-73
2022/08/06 01:15:04;;;;;;;8.95;2.92;;;;;;;12.89;72.10;102478.41;4893855;29;20052;-73
2022/08/06 01:18:08;;;;;;;5.95;3.00;;;;;;;12.88;72.65;102491.66;4894209;29;20128;-73
2022/08/06 01:20:57;;;;;;;8.48;3.10;;;;;;;12.86;73.04;102494.31;4889433;29;20049;-73
2022/08/06 01:24:19;;;;;;;6.97;3.15;;;;;;;12.84;73.21;102490.81;4890879;29;20182;-73
2022/08/06 01:27:33;;;;;;;6.88;3.10;;;;;;;12.79;73.15;102495.31;4894676;29;20049;-74
2022/08/06 01:30:11;;;;;;;;;;;;;;;12.73;73.19;102506.84;4891054;29;20132;-74
2022/08/06 01:33:14;;;;;;;7.25;3.70;;;;;;;12.70;73.42;102508.66;4890819;29;19927;-73
2022/08/06 01:35:55;;;;;;;8.65;3.25;;;;;;;12.69;73.23;102509.56;4894988;29;20600;-73
2022/08/06 01:38:35;;;;;;;6.68;3.45;;;;;;;12.69;73.77;102506.91;4894373;29;20121;-74
2022/08/06 01:41:38;;;;;;;6.82;3.70;;;;;;;12.66;73.53;102512.25;4895543;29;20052;-75
2022/08/06 01:44:34;;;;;;;8.77;3.65;;;;;;;12.59;73.30;102511.44;4894013;29;20422;-74
2022/08/06 01:47:09;;;;;;;5.82;3.10;;;;;;;12.55;73.66;102518.53;4892537;29;20072;-73
2022/08/06 01:49:50;;;;;;;9.20;3.67;;;;;;;12.48;73.72;102510.69;4890482;29;20492;-73
2022/08/06 01:52:37;;;;;;;8.07;3.45;;;;;;;12.46;74.15;102513.34;4892349;29;20041;-74
2022/08/06 01:55:13;;;;;;;9.00;3.65;;;;;;;12.44;73.93;102517.78;4887660;29;20808;-74
2022/08/06 01:57:57;;;;;;;7.78;3.47;;;;;;;12.40;74.16;102519.59;4890596;29;20871;-74
2022/08/06 02:00:51;;;;;;;10.77;3.80;;;;;;;12.38;74.22;102518.72;4893568;29;20547;-74
2022/08/06 02:03:45;;;;;;;6.80;3.42;;;;;;;12.38;74.35;102523.16;4892694;29;20048;-74
2022/08/06 02:06:43;;;;;;;11.27;3.78;;;;;;;12.37;74.62;102524.91;4895613;29;20041;-74
2022/08/06 02:09:20;;;;;;;9.05;3.65;;;;;;;12.36;74.72;102520.50;4893528;29;20482;-75
2022/08/06 02:12:11;;;;;;;7.75;3.42;;;;;;;12.34;74.67;102517.03;4893236;29;20082;-75
2022/08/06 02:15:04;;;;;;;9.30;3.38;;;;;;;12.33;74.64;102523.19;4892401;29;20068;-74
2022/08/06 02:17:42;;;;;;;4.80;3.17;;;;;;;12.31;74.93;102517.03;4894855;29;20149;-75
2022/08/06 02:20:36;;;;;;;10.23;3.40;;;;;;;12.30;74.88;102520.59;4891915;29;20049;-75
2022/08/06 02:23:17;;;;;;;8.20;3.72;;;;;;;12.29;75.09;102525.91;4889805;29;20493;-75
2022/08/06 02:25:48;;;;;;;9.57;3.50;;;;;;;12.25;75.24;102522.41;4886363;29;20120;-75
2022/08/06 02:28:23;;;;;;;8.02;3.50;;;;;;;12.23;75.49;102522.41;4892074;29;20124;-75
2022/08/06 02:30:57;;;;;;;11.52;3.67;;;;;;;12.23;76.04;102522.41;4892677;29;20049;-75
2022/08/06 02:33:28;;;;;;;9.00;4.07;;;;;;;12.24;76.13;102518.00;4892162;29;20045;-75
2022/08/06 02:36:22;;;;;;;6.85;3.85;;;;;;;12.21;76.10;102521.53;4895291;29;20060;-75
2022/08/06 02:39:05;;;;;;;11.45;4.20;;;;;;;12.19;76.19;102518.06;4895211;29;20049;-75
2022/08/06 02:42:11;;;;;;;11.93;3.92;;;;;;;12.19;76.36;102530.38;4899299;29;20620;-75
2022/08/06 02:45:07;;;;;;;11.73;4.00;;;;;;;12.16;76.85;102526.00;4895741;29;20065;-75
2022/08/06 02:47:42;;;;;;;11.27;4.53;;;;;;;12.14;77.20;102529.56;4898259;29;20052;-74
2022/08/06 02:50:36;;;;;;;8.75;4.03;;;;;;;12.11;76.84;102527.81;4885039;29;20042;-74
2022/08/06 02:53:10;;;;;;;11.00;4.35;;;;;;;12.07;76.86;102537.53;4886619;29;20087;-74
2022/08/06 02:55:57;;;;;;;11.35;4.40;;;;;;;12.07;76.80;102541.97;4894344;29;20053;-74
2022/08/06 02:58:57;;;;;;;10.80;4.50;;;;;;;12.00;76.69;102537.66;4897068;29;20501;-74
2022/08/06 03:01:48;;;;;;;7.53;4.35;;;;;;;11.97;76.88;102530.56;4893592;29;20551;-74
2022/08/06 03:04:23;;;;;;;10.15;4.40;;;;;;;11.94;77.16;102534.13;4895185;29;20085;-74
2022/08/06 03:07:05;;;;;;;10.45;4.03;;;;;;;11.98;77.35;102534.13;4897967;29;20105;-74
2022/08/06 03:09:56;;;;;;;8.82;4.30;;;;;;;11.95;77.63;102540.28;4895256;29;20051;-75
2022/08/06 03:12:24;;;;;;;8.52;3.90;;;;;;;11.89;77.73;102535.94;4896065;29;20053;-75
2022/08/06 03:15:01;;;;;;;10.80;4.33;;;;;;;11.85;77.71;102530.69;4895634;29;20048;-74
2022/08/06 03:17:40;;;;;;;10.68;5.00;;;;;;;11.84;77.81;102539.50;4898020;29;20088;-74
2022/08/06 03:20:20;;;;;;;13.10;4.63;;;;;;;11.83;78.01;102537.75;4890361;29;20045;-74
2022/08/06 03:22:59;;;;;;;9.55;4.55;;;;;;;11.82;78.15;102539.50;4893877;29;20130;-73
2022/08/06 03:25:29;;;;;;;8.85;4.53;;;;;;;11.81;77.83;102548.31;4894863;29;20566;-73
2022/08/06 03:28:00;;;;;;;7.88;4.22;;;;;;;11.74;78.01;102536.94;4880089;29;20087;-73
2022/08/06 03:30:30;;;;;;;7.32;4.25;;;;;;;11.73;77.77;102536.94;4893753;29;20121;-73
2022/08/06 03:33:06;;;;;;;9.27;4.05;;;;;;;11.70;77.95;102542.25;4896035;29;20123;-73
2022/08/06 03:35:57;;;;;;;9.48;4.75;;;;;;;11.65;78.07;102544.91;4895742;29;20041;-73
2022/08/06 03:38:33;;;;;;;10.25;5.35;;;;;;;11.60;78.39;102536.16;4894564;29;20523;-73
2022/08/06 03:41:06;;;;;;;9.63;4.75;;;;;;;11.58;78.72;102537.94;4895971;29;20601;-73
2022/08/06 03:43:35;;;;;;;8.13;4.85;;;;;;;11.54;78.71;102542.38;4896124;29;20083;-73
2022/08/06 03:46:35;;;;;;;7.82;4.28;;;;;;;11.53;79.42;102556.47;4885944;29;20045;-73
2022/08/06 03:49:10;;;;;;;10.18;4.97;;;;;;;11.49;79.35;102552.97;4889650;29;20498;-74
2022/08/06 03:51:44;;;;;;;11.73;5.10;;;;;;;11.43;79.53;102558.31;4885161;29;20080;-74
2022/08/06 03:54:27;;;;;;;8.70;4.53;;;;;;;11.38;79.23;102556.56;4887369;29;20508;-74
2022/08/06 03:57:10;;;;;;;9.05;4.80;;;;;;;11.34;79.31;102558.34;4892416;29;20049;-73
2022/08/06 03:59:45;;;;;;;13.05;5.07;;;;;;;11.31;79.22;102564.50;4897865;29;20056;-73
2022/08/06 04:02:40;;;;;;;7.50;4.88;;;;;;;11.30;79.24;102565.41;4895141;29;20077;-73
2022/08/06 04:05:20;;;;;;;7.68;4.57;;;;;;;11.30;79.48;102570.69;4892164;29;20075;-73
2022/08/06 04:08:07;;;;;;;13.27;5.90;;;;;;;11.34;79.93;102577.69;4895115;29;20509;-73
2022/08/06 04:10:46;;;;;;;13.93;5.78;;;;;;;11.42;80.72;102582.06;4894051;29;20080;-75
2022/08/06 04:13:25;;;;;;;12.00;5.90;;;;;;;11.45;80.58;102576.75;4895905;29;20078;-76
2022/08/06 04:16:14;;;;;;;11.43;5.97;;;;;;;11.50;80.05;102575.84;4896951;29;20540;-73
2022/08/06 04:19:06;;;;;;;9.73;5.53;;;;;;;11.54;80.29;102584.63;4895743;29;20080;-75
2022/08/06 04:21:36;;;;;;;8.85;6.30;;;;;;;11.58;79.93;102582.84;4895064;29;20049;-75
2022/08/06 04:24:23;;;;;;;10.35;5.78;;;;;;;11.61;79.47;102588.97;4893847;29;20041;-75
2022/08/06 04:27:04;;;;;;;8.18;6.22;;;;;;;11.67;79.69;102588.06;4893818;29;20051;-75
2022/08/06 04:29:38;;;;;;;8.07;5.60;;;;;;;11.69;79.50;102588.06;4893232;29;20049;-75
2022/08/06 04:32:27;;;;;;;11.38;5.50;;;;;;;11.74;79.31;102591.53;4893306;29;20045;-73
2022/08/06 04:35:04;;;;;;;10.27;5.38;;;;;;;11.75;79.21;102588.88;4894289;29;20055;-73
2022/08/06 04:37:52;;;;;;;9.38;5.28;;;;;;;11.77;79.03;102592.38;4892529;29;20045;-73
2022/08/06 04:40:22;;;;;;;9.85;5.50;;;;;;;11.79;79.01;102587.09;4894295;29;20053;-74
2022/08/06 04:43:10;;;;;;;7.93;4.78;;;;;;;11.83;79.02;102599.38;4895083;29;20053;-73
2022/08/06 04:45:41;;;;;;;8.70;5.10;;;;;;;11.88;79.00;102600.25;4895432;29;20041;-73
2022/08/06 04:48:30;;;;;;;9.35;4.60;;;;;;;11.93;78.84;102600.22;4895187;29;20091;-75
2022/08/06 04:51:07;;;;;;;13.40;5.18;;;;;;;12.00;78.56;102603.72;4889235;29;20041;-73
2022/08/06 04:53:43;;;;;;;10.82;5.68;;;;;;;12.10;79.13;102613.31;4887529;29;20077;-71
2022/08/06 04:56:23;;;;;;;8.07;5.03;;;;;;;12.21;79.01;102613.22;4894069;29;20051;-75
2022/08/06 04:58:59;;;;;;;9.70;5.90;;;;;;;12.31;79.30;102614.03;4886872;29;20087;-72
2022/08/06 05:01:26;;;;;;;12.43;5.50;;;;;;;12.39;79.50;102617.47;4897893;29;20079;-74
2022/08/06 05:04:06;;;;;;;10.63;6.03;;;;;;;12.45;79.31;102613.91;4887621;29;20053;-75
2022/08/06 05:07:23;;;;;;;8.80;5.50;;;;;;;12.55;79.24;102616.41;4887046;29;20061;-73
2022/08/06 05:09:59;;;;;;;10.05;5.38;;;;;;;12.62;78.89;102618.97;4904378;29;20068;-73
2022/08/06 05:12:51;;;;;;;8.38;5.50;;;;;;;12.69;78.90;102621.56;4883786;29;20160;-73
2022/08/06 05:15:29;;;;;;;11.35;4.93;;;;;;;12.77;78.92;102624.13;4890002;29;20114;-72
2022/08/06 05:18:13;;;;;;;10.32;4.78;;;;;;;12.86;78.59;102625.81;4898539;29;20064;-72
2022/08/06 05:21:03;;;;;;;11.02;5.05;;;;;;;12.96;78.00;102634.50;4882961;29;20049;-72
2022/08/06 05:23:45;;;;;;;7.68;4.40;;;;;;;13.03;77.55;102634.41;4877136;29;20053;-72
2022/08/06 05:26:17;;;;;;;;;;;;;;;13.14;77.53;102634.28;4878100;29;20049;-72
2022/08/06 05:28:52;;;;;;;9.05;4.85;;;;;;;13.33;77.21;102639.31;4895505;29;20423;-72
2022/08/06 05:31:36;;;;;;;9.77;4.72;;;;;;;13.90;76.12;102643.84;4921467;29;20422;-72
2022/08/06 05:34:11;;;;;;;8.43;4.60;;;;;;;15.69;71.85;102641.34;4895560;29;20045;-73
2022/08/06 05:36:40;;;;;;;7.28;4.35;;;;;;;17.87;65.99;102634.47;4895749;29;20037;-72
2022/08/06 05:39:10;;;;;;;7.82;4.13;;;;;;;19.71;60.41;102635.88;4890502;29;20421;-72
2022/08/06 05:41:57;;;;;;;9.75;4.38;;;;;;;20.76;56.52;102638.63;4884817;29;20055;-72
2022/08/06 05:44:27;;;;;;;10.38;3.58;;;;;;;20.99;54.52;102633.13;4878150;29;20117;-72
2022/08/06 05:47:11;;;;;;;8.52;3.20;;;;;;;22.07;51.67;102645.88;4888821;29;20055;-72
2022/08/06 05:49:50;;;;;;;10.05;3.33;;;;;;;23.44;48.46;102645.81;4893857;29;20486;-72
2022/08/06 05:52:35;;;;;;;5.30;2.90;;;;;;;24.65;45.79;102638.72;4898387;29;20140;-72
2022/08/06 05:55:11;;;;;;;8.93;3.17;;;;;;;25.35;42.90;102643.31;4876926;29;20060;-72
2022/08/06 05:58:04;;;;;;;7.00;2.60;;;;;;;26.13;41.33;102641.84;4885566;29;20502;-71
2022/08/06 06:00:40;;;;;;;14.65;3.13;;;;;;;26.40;39.67;102629.22;4879097;29;20046;-72
2022/08/06 06:03:18;;;;;;;6.70;2.35;;;;;;;24.98;41.74;102634.03;4908549;29;20041;-72
2022/08/06 06:06:01;;;;;;;7.60;2.60;;;;;;;22.53;46.18;102648.91;4892589;29;20058;-73
2022/08/06 06:08:44;;;;;;;9.65;2.90;;;;;;;20.71;50.51;102639.72;4892218;29;20070;-72
2022/08/06 06:11:30;;;;;;;8.70;2.40;;;;;;;19.39;53.41;102642.47;4897658;29;20049;-72
2022/08/06 06:14:41;;;;;;;9.15;2.92;;;;;;;18.26;56.57;102654.56;4900518;29;20046;-72
2022/08/06 06:17:45;;;;;;;7.30;3.42;;;;;;;17.62;58.96;102658.38;4897668;29;20531;-72
2022/08/06 06:20:51;;;;;;;8.00;3.20;;;;;;;17.07;61.06;102652.00;4909419;29;20049;-72
2022/08/06 06:23:49;;;;;;;7.20;2.88;;;;;;;16.69;62.56;102648.63;4892088;29;20041;-72
2022/08/06 06:26:32;;;;;;;6.22;2.70;;;;;;;16.49;63.63;102646.47;4912712;29;20071;-72
2022/08/06 06:29:08;;;;;;;11.18;3.20;;;;;;;16.35;64.28;102654.81;4910718;29;20049;-71
2022/08/06 06:32:09;;;;;;;6.40;3.33;;;;;;;16.20;64.59;102645.44;4897952;29;20114;-72
2022/08/06 06:35:15;;;;;;;;;;;;;;;16.09;65.27;102651.06;4899122;29;20477;-72
2022/08/06 06:38:38;;;;;;;10.40;2.63;;;;;;;16.07;65.95;102649.34;4900302;29;19927;-72
2022/08/06 06:41:34;;;;;;;5.70;2.25;;;;;;;16.07;66.13;102655.53;4887143;29;20156;-74
2022/08/06 06:44:18;;;;;;;4.50;2.35;;;;;;;16.07;66.10;102655.53;4908484;29;20053;-73
2022/08/06 06:47:31;;;;;;;27.00;5.32;;;;;;;16.08;66.32;102654.63;4880160;29;20124;-74
2022/08/06 06:50:25;;;;;;;8.10;2.15;;;;;;;16.17;65.75;102663.28;4879970;29;20061;-73
2022/08/06 06:52:54;;;;;;;6.15;1.77;;;;;;;16.24;65.75;102664.88;4892272;29;20045;-74
2022/08/06 06:55:49;;;;;;;7.75;2.20;;;;;;;16.32;65.77;102662.03;4899213;29;20080;-73
2022/08/06 06:58:44;;;;;;;7.68;1.83;;;;;;;16.46;65.43;102674.06;4896477;29;20064;-74
2022/08/06 07:01:17;;;;;;;10.43;1.60;;;;;;;16.51;65.08;102667.75;4898161;29;20101;-73
2022/08/06 07:03:58;;;;;;;9.52;1.50;;;;;;;16.58;65.34;102675.50;4896887;29;20537;-73
2022/08/06 07:06:30;;;;;;;6.78;1.77;;;;;;;16.64;65.09;102670.97;4896996;29;20122;-73
2022/08/06 07:09:24;;;;;;;5.07;1.13;;;;;;;16.74;64.20;102675.13;4896067;29;20109;-73
2022/08/06 07:12:14;;;;;;;4.47;1.23;;;;;;;16.88;64.76;102680.06;4897971;29;20060;-73
2022/08/06 07:14:52;;;;;;;4.40;1.20;;;;;;;16.99;63.76;102678.00;4897895;29;20091;-73
2022/08/06 07:17:31;;;;;;;4.53;1.00;;;;;;;17.12;62.56;102680.31;4898196;29;20124;-74
2022/08/06 07:20:24;;;;;;;4.82;0.88;;;;;;;17.26;62.05;102685.25;4898361;29;20541;-73
2022/08/06 07:22:59;;;;;;;5.65;0.90;;;;;;;17.35;61.97;102695.63;4898675;29;20052;-73
2022/08/06 07:25:49;;;;;;;3.25;0.80;;;;;;;17.47;61.45;102691.72;4898286;29;20517;-73
2022/08/06 07:28:27;;;;;;;5.60;1.10;;;;;;;17.56;61.31;102691.44;4898577;29;20142;-73
2022/08/06 07:31:04;;;;;;;2.92;0.70;;;;;;;17.67;61.11;102689.31;4897053;29;20040;-74
2022/08/06 07:33:40;;;;;;;5.47;0.90;;;;;;;17.78;60.29;102694.34;4897472;29;20127;-73
2022/08/06 07:36:33;;;;;;;3.45;0.88;;;;;;;17.89;60.58;102706.47;4898030;29;20053;-74
2022/08/06 07:39:10;;;;;;;2.92;0.63;;;;;;;18.04;60.62;102706.00;4898107;29;20041;-73
2022/08/06 07:41:43;;;;;;;1.58;0.32;;;;;;;18.20;59.30;102695.69;4898488;29;20052;-74
2022/08/06 07:44:37;;;;;;;2.63;0.50;;;;;;;18.39;58.14;102695.06;4898561;29;20049;-73
2022/08/06 07:47:32;;;;;;;2.22;0.68;;;;;;;18.62;57.00;102696.94;4898969;29;20045;-73
2022/08/06 07:50:21;;;;;;;3.25;0.73;;;;;;;18.80;57.58;102692.75;4898476;29;20037;-73
2022/08/06 07:52:55;;;;;;;2.17;0.52;;;;;;;19.00;56.37;102692.09;4898625;29;20037;-73
2022/08/06 07:55:26;;;;;;;3.97;0.60;;;;;;;19.19;56.10;102700.28;4898959;29;20049;-73
2022/08/06 07:58:08;;;;;;;1.50;0.50;;;;;;;19.38;54.82;102694.25;4898010;29;20049;-73
2022/08/06 08:00:37;;;;;;;3.67;0.63;;;;;;;19.59;51.42;102694.31;4898391;29;20075;-72
2022/08/06 08:06:18;;;;;;;3.22;0.40;;;;;;;19.62;52.41;102692.41;4898370;29;20115;-73
2022/08/06 08:09:04;;;;;;;2.05;0.40;;;;;;;19.77;50.97;102704.31;4897887;29;20052;-72
2022/08/06 08:11:33;;;;;;;2.17;0.57;;;;;;;19.73;52.18;102697.34;4898114;29;20592;-72
2022/08/06 08:14:22;;;;;;;1.88;0.60;;;;;;;19.75;50.83;102700.81;4897550;29;20108;-73
2022/08/06 08:16:52;;;;;;;3.70;0.60;;;;;;;19.48;52.16;102700.09;4897605;29;20523;-74
2022/08/06 08:19:32;;;;;;;3.55;0.60;;;;;;;19.62;51.90;102707.59;4896989;29;20140;-73
2022/08/06 08:22:18;;;;;;;3.92;0.30;;;;;;;19.80;52.16;102701.50;4897432;29;20045;-73
2022/08/06 08:24:50;;;;;;;3.67;0.60;;;;;;;19.95;52.01;102705.38;4897478;29;20084;-73
2022/08/06 08:27:21;;;;;;;2.03;0.45;;;;;;;20.10;50.50;102695.00;4897505;29;20045;-73
2022/08/06 08:29:52;;;;;;;2.10;0.40;;;;;;;20.17;49.29;102696.47;4897855;29;20049;-73
2022/08/06 08:32:24;;;;;;;2.80;0.63;;;;;;;20.27;50.15;102700.53;4897109;29;20051;-73
2022/08/06 08:34:53;;;;;;;1.50;0.30;;;;;;;20.43;50.21;102694.53;4897252;29;20088;-73
2022/08/06 08:37:23;;;;;;;4.63;0.55;;;;;;;20.66;48.91;102692.63;4897897;29;20043;-72
2022/08/06 08:39:50;;;;;;;3.15;0.50;;;;;;;20.84;48.93;102705.28;4897683;29;20048;-73
2022/08/06 08:42:42;;;;;;;1.77;0.75;;;;;;;20.96;48.55;102695.81;4897065;29;20117;-74
2022/08/06 08:45:13;;;;;;;3.53;0.60;;;;;;;21.07;48.56;102693.50;4897458;29;20048;-73
2022/08/06 08:47:52;;;;;;;1.05;0.40;;;;;;;21.28;46.96;102701.50;4897725;29;20458;-73
2022/08/06 08:50:28;;;;;;;2.38;0.40;;;;;;;21.27;45.19;102702.44;4897484;29;20044;-73
2022/08/06 08:53:09;;;;;;;4.28;0.70;;;;;;;20.93;45.93;102694.16;4896868;29;20045;-73
2022/08/06 08:55:37;;;;;;;2.08;0.30;;;;;;;20.75;46.45;102703.00;4897242;29;20524;-74
2022/08/06 08:58:25;;;;;;;3.08;0.50;;;;;;;20.85;46.93;102703.47;4897343;29;20394;-73
2022/08/06 09:01:10;;;;;;;3.20;0.60;;;;;;;20.93;45.05;102712.03;4897304;29;20136;-74
2022/08/06 09:04:02;;;;;;;2.80;0.60;;;;;;;20.61;46.39;102709.81;4896103;29;20041;-73
2022/08/06 09:06:32;;;;;;;2.42;0.60;;;;;;;20.51;47.00;102704.88;4896921;29;20109;-73
2022/08/06 09:09:06;;;;;;;1.83;0.32;;;;;;;20.44;47.39;102715.88;4897165;29;20277;-74
2022/08/06 09:11:42;;;;;;;2.60;0.50;;;;;;;20.34;48.21;102711.84;4897101;29;20538;-74
2022/08/06 09:14:29;;;;;;;2.10;0.40;;;;;;;20.49;48.26;102718.34;4896441;29;20049;-73
2022/08/06 09:17:02;;;;;;;1.48;0.45;;;;;;;20.70;46.98;102713.00;4897358;29;20537;-72
2022/08/06 09:19:32;;;;;;;1.65;0.35;;;;;;;20.89;46.67;102718.47;4897106;29;20101;-73
2022/08/06 09:22:07;;;;;;;3.38;0.68;;;;;;;21.03;45.74;102716.03;4896749;29;20494;-73
2022/08/06 09:24:37;;;;;;;2.50;0.32;;;;;;;20.82;45.51;102723.22;4897062;29;20053;-73
2022/08/06 09:27:13;;;;;;;2.85;0.35;;;;;;;20.50;46.58;102713.88;4896955;29;20045;-72
2022/08/06 09:30:07;;;;;;;2.50;0.40;;;;;;;20.23;46.82;102725.69;4896916;29;20497;-73
2022/08/06 09:32:56;;;;;;;1.73;0.40;;;;;;;19.95;47.64;102720.59;4897018;29;20049;-73
2022/08/06 09:35:30;;;;;;;1.17;0.57;;;;;;;19.84;47.83;102723.69;4896825;29;20092;-73
2022/08/06 09:38:14;;;;;;;1.27;0.40;;;;;;;19.86;49.05;102730.75;4896259;29;20041;-73
2022/08/06 09:41:12;;;;;;;1.70;0.40;;;;;;;20.19;48.25;102718.72;4896486;29;20049;-73
2022/08/06 09:43:44;;;;;;;2.28;0.50;;;;;;;20.57;47.57;102715.34;4896625;29;20049;-72
2022/08/06 09:46:42;;;;;;;0.77;0.22;;;;;;;20.97;45.18;102716.31;4896551;29;20556;-72
2022/08/06 09:49:18;;;;;;;1.63;0.60;;;;;;;21.18;44.78;102718.97;4896580;29;20703;-73
2022/08/06 09:52:17;;;;;;;1.40;0.30;;;;;;;21.13;43.50;102720.97;4896583;29;20059;-73
2022/08/06 09:54:48;;;;;;;3.85;0.35;;;;;;;20.89;42.97;102722.00;4896556;29;20053;-73
2022/08/06 09:57:23;;;;;;;;;;;;;;;20.58;44.62;102731.34;4896625;29;20450;-73
2022/08/06 10:00:03;;;;;;;1.50;0.50;;;;;;;20.36;45.63;102734.09;4896537;29;19932;-73
2022/08/06 10:02:42;;;;;;;2.50;0.32;;;;;;;20.46;44.67;102730.09;4897018;29;20586;-73
2022/08/06 10:05:18;;;;;;;1.00;0.40;;;;;;;20.66;44.29;102723.00;4895293;29;20136;-73
2022/08/06 10:08:03;;;;;;;1.48;0.30;;;;;;;20.87;43.99;102725.72;4896415;29;20094;-73
2022/08/06 10:10:46;;;;;;;2.08;0.45;;;;;;;21.26;44.74;102724.84;4896401;29;20589;-73
2022/08/06 10:13:36;;;;;;;5.15;0.43;;;;;;;21.68;43.31;102720.25;4896405;29;20048;-73
2022/08/06 10:16:20;;;;;;;3.80;0.40;;;;;;;21.74;43.20;102717.28;4896043;29;20041;-73
2022/08/06 10:18:57;;;;;;;1.67;0.60;;;;;;;21.56;42.43;102713.63;4895837;29;20045;-73
2022/08/06 10:21:44;;;;;;;2.53;0.55;;;;;;;21.21;43.71;102722.38;4896238;29;20110;-73
2022/08/06 10:24:15;;;;;;;2.20;0.50;;;;;;;21.01;43.59;102719.72;4896398;29;20584;-73
2022/08/06 10:27:08;;;;;;;5.50;0.35;;;;;;;20.83;43.92;102708.00;4896364;29;20041;-73
2022/08/06 10:30:01;;;;;;;2.40;0.70;;;;;;;20.75;44.28;102708.38;4895480;29;20053;-73
2022/08/06 10:32:40;;;;;;;4.43;0.70;;;;;;;20.98;43.85;102707.34;4896008;29;20100;-73
2022/08/06 10:35:16;;;;;;;1.65;0.38;;;;;;;21.31;43.69;102714.78;4895984;29;20188;-74
2022/08/06 10:37:56;;;;;;;1.58;0.43;;;;;;;21.62;41.41;102707.97;4896181;29;20045;-73
2022/08/06 10:40:25;;;;;;;1.88;0.43;;;;;;;21.88;42.47;102695.97;4895702;29;20053;-73
2022/08/06 10:43:03;;;;;;;2.58;0.52;;;;;;;22.25;40.44;102689.75;4895619;29;20049;-74
2022/08/06 10:45:35;;;;;;;1.27;0.40;;;;;;;22.55;41.24;102695.38;4896157;29;20072;-73
2022/08/06 10:48:17;;;;;;;1.67;0.50;;;;;;;22.93;40.75;102692.50;4895914;29;20049;-74
2022/08/06 10:51:07;;;;;;;2.63;0.40;;;;;;;23.13;39.56;102682.47;4895855;29;20045;-73
2022/08/06 10:53:37;;;;;;;1.25;0.40;;;;;;;23.24;38.52;102682.78;4895953;29;20735;-74
2022/08/06 10:56:26;;;;;;;2.65;0.40;;;;;;;23.36;38.19;102686.59;4896450;29;20052;-73
2022/08/06 10:58:59;;;;;;;3.10;0.40;;;;;;;23.27;38.53;102681.72;4912570;29;20053;-73
2022/08/06 11:02:23;;;;;;;1.83;0.45;;;;;;;23.10;39.21;102678.09;4898844;29;20047;-73
2022/08/06 11:05:16;;;;;;;2.05;0.40;;;;;;;22.96;38.35;102681.53;4898686;29;20084;-73
2022/08/06 11:08:23;;;;;;;4.32;0.40;;;;;;;22.76;39.19;102684.44;4898581;29;20098;-73
2022/08/06 11:12:11;;;;;;;0.95;0.28;;;;;;;22.37;39.70;102683.75;4898688;29;20042;-73
2022/08/06 11:14:45;;;;;;;1.20;0.30;;;;;;;22.29;39.14;102677.88;4898669;29;20083;-73
2022/08/06 11:17:13;;;;;;;2.35;0.30;;;;;;;22.53;39.07;102681.16;4899112;29;20126;-73
2022/08/06 11:19:49;;;;;;;2.03;0.38;;;;;;;22.69;37.94;102678.50;4898167;29;20045;-73
2022/08/06 11:22:39;;;;;;;0.65;0.28;;;;;;;22.84;37.14;102684.88;4898877;29;20049;-74
2022/08/06 11:25:48;;;;;;;1.15;0.25;;;;;;;22.94;37.19;102671.84;4898403;29;20049;-74
2022/08/06 11:28:40;;;;;;;2.08;0.35;;;;;;;23.22;37.04;102671.22;4898556;29;20052;-73
2022/08/06 11:31:37;;;;;;;1.08;0.32;;;;;;;23.55;35.69;102664.03;4898327;29;20045;-73
2022/08/06 11:34:20;;;;;;;0.70;0.20;;;;;;;23.76;34.65;102670.00;4897909;29;20049;-74
2022/08/06 11:37:00;;;;;;;0.68;0.22;;;;;;;23.55;34.33;102658.66;4898478;29;20053;-74
2022/08/06 11:40:08;;;;;;;1.38;0.20;;;;;;;23.26;33.69;102655.78;4898707;29;20421;-74
2022/08/06 11:42:42;;;;;;;2.40;0.22;;;;;;;23.34;34.97;102658.06;4898702;29;20129;-74
2022/08/06 11:45:17;;;;;;;1.67;0.30;;;;;;;23.48;35.76;102655.44;4898428;29;20057;-73
2022/08/06 11:48:06;;;;;;;1.58;0.40;;;;;;;23.69;35.09;102655.16;4898186;29;20433;-73
2022/08/06 11:50:53;;;;;;;1.27;0.40;;;;;;;23.89;34.66;102660.25;4898411;29;20556;-73
2022/08/06 11:53:38;;;;;;;1.98;0.40;;;;;;;24.14;35.03;102653.47;4898401;29;20037;-74
2022/08/06 11:56:18;;;;;;;3.90;0.40;;;;;;;23.95;34.74;102652.81;4898013;29;20137;-73
2022/08/06 11:59:13;;;;;;;2.40;0.47;;;;;;;24.25;34.41;102654.66;4898043;29;20041;-72
2022/08/06 12:01:48;;;;;;;3.63;0.40;;;;;;;24.42;33.61;102648.25;4897812;29;20576;-74
2022/08/06 12:04:46;;;;;;;0.55;0.25;;;;;;;24.28;33.83;102641.84;4898032;29;20127;-74
2022/08/06 12:07:29;;;;;;;0.70;0.30;;;;;;;24.38;33.47;102644.84;4896532;29;20060;-74
2022/08/06 12:10:06;;;;;;;1.45;0.35;;;;;;;24.65;34.71;102638.72;4897899;29;20465;-75
2022/08/06 12:12:45;;;;;;;1.10;0.40;;;;;;;24.99;35.06;102644.72;4897543;29;20041;-75
2022/08/06 12:15:16;;;;;;;1.63;0.22;;;;;;;25.37;34.45;102644.09;4897945;29;20090;-74
2022/08/06 12:18:04;;;;;;;2.50;0.40;;;;;;;25.14;33.61;102636.63;4897801;29;20045;-74
2022/08/06 12:20:51;;;;;;;1.10;0.35;;;;;;;25.28;34.08;102642.00;4897295;29;20056;-74
2022/08/06 12:23:23;;;;;;;2.75;0.30;;;;;;;25.03;33.79;102642.72;4897767;29;20049;-74
2022/08/06 12:26:11;;;;;;;1.90;0.30;;;;;;;24.68;33.47;102640.38;4897416;29;20041;-73
2022/08/06 12:28:38;;;;;;;2.13;0.30;;;;;;;24.45;33.43;102631.88;4898234;29;20141;-74
2022/08/06 12:31:05;;;;;;;2.13;0.50;;;;;;;24.74;33.58;102629.22;4897203;29;20072;-74
2022/08/06 12:33:52;;;;;;;3.50;0.50;;;;;;;25.14;32.69;102631.22;4897436;29;20068;-73
2022/08/06 12:36:20;;;;;;;0.98;0.22;;;;;;;25.50;32.61;102625.28;4897555;29;20045;-74
2022/08/06 12:39:01;;;;;;;1.40;0.40;;;;;;;25.70;32.14;102626.66;4897795;29;20529;-74